createdAt,value
2018-02-25T00:02:03.136Z,99.9
2018-02-25T00:07:03.837Z,99.9
2018-02-25T00:12:03.058Z,99.9
2018-02-25T00:17:03.482Z,99.9
2018-02-25T00:22:03.425Z,99.9
2018-02-25T00:27:03.518Z,99.9
2018-02-25T00:32:03.637Z,99.9
2018-02-25T00:37:03.520Z,99.9
2018-02-25T00:42:03.495Z,99.9
2018-02-25T00:47:03.684Z,99.9
2018-02-25T00:52:03.892Z,99.9
2018-02-25T00:57:03.065Z,99.9
2018-02-25T01:02:03.084Z,99.9
2018-02-25T01:07:03.698Z,99.9
2018-02-25T01:12:03.807Z,99.9
2018-02-25T01:17:03.952Z,99.9
2018-02-25T01:22:03.432Z,99.9
2018-02-25T01:27:03.542Z,99.9
2018-02-25T01:32:03.565Z,99.9
2018-02-25T01:37:03.766Z,99.9
2018-02-25T01:42:03.713Z,99.9
2018-02-25T01:47:03.875Z,99.9
2018-02-25T01:52:03.024Z,99.9
2018-02-25T01:57:03.166Z,99.9
2018-02-25T02:02:03.343Z,99.9
2018-02-25T02:07:03.510Z,99.9
2018-02-25T02:12:03.625Z,99.9
2018-02-25T02:17:03.787Z,99.9
2018-02-25T02:22:03.319Z,99.9
2018-02-25T02:27:03.512Z,99.9
2018-02-25T02:32:03.566Z,99.8
2018-02-25T02:37:03.497Z,99.8
2018-02-25T02:42:03.491Z,99.7
2018-02-25T02:47:03.635Z,99.6
2018-02-25T02:52:03.451Z,99.4
2018-02-25T02:57:03.573Z,99.4
2018-02-25T03:02:03.767Z,99.2
2018-02-25T03:07:03.915Z,99.1
2018-02-25T03:12:04.015Z,99.2
2018-02-25T03:17:03.408Z,99.1
2018-02-25T03:22:03.595Z,99.1
2018-02-25T03:27:03.604Z,99.0
2018-02-25T03:32:03.677Z,99.0
2018-02-25T03:37:03.734Z,99.0
2018-02-25T03:42:03.764Z,98.9
2018-02-25T03:47:03.873Z,99.0
2018-02-25T03:52:03.026Z,98.8
2018-02-25T03:57:03.147Z,99.0
2018-02-25T04:02:03.388Z,98.8
2018-02-25T04:07:03.421Z,98.9
2018-02-25T04:12:03.674Z,98.7
2018-02-25T04:17:03.902Z,98.5
2018-02-25T04:22:03.932Z,98.5
2018-02-25T04:27:04.006Z,98.5
2018-02-25T04:32:03.099Z,98.4
2018-02-25T04:37:03.314Z,98.4
2018-02-25T04:42:03.487Z,98.4
2018-02-25T04:47:03.515Z,98.4
2018-02-25T04:52:03.581Z,98.3
2018-02-25T04:57:03.593Z,98.2
2018-02-25T05:02:03.736Z,98.1
2018-02-25T05:07:03.933Z,98.1
2018-02-25T05:12:03.170Z,97.8
2018-02-25T05:17:03.575Z,97.8
2018-02-25T05:22:03.592Z,98.0
2018-02-25T05:27:03.640Z,97.9
2018-02-25T05:32:04.079Z,97.7
2018-02-25T05:37:03.716Z,97.6
2018-02-25T05:42:03.937Z,97.7
2018-02-25T05:47:30.077Z,97.6
2018-02-25T05:52:03.507Z,97.6
2018-02-25T05:57:03.791Z,97.6
2018-02-25T06:02:04.374Z,97.6
2018-02-25T06:07:03.538Z,97.4
2018-02-25T06:12:03.960Z,97.6
2018-02-25T06:17:24.571Z,97.2
2018-02-25T06:22:03.458Z,97.2
2018-02-25T06:27:03.642Z,97.3
2018-02-25T06:32:24.271Z,97.2
2018-02-25T06:37:03.115Z,97.0
2018-02-25T06:42:03.213Z,97.2
2018-02-25T06:47:25.423Z,97.0
2018-02-25T06:52:03.692Z,97.4
2018-02-25T06:57:03.820Z,97.6
2018-02-25T07:02:21.622Z,97.6
2018-02-25T07:07:03.403Z,97.8
2018-02-25T07:12:03.631Z,97.8
2018-02-25T07:17:26.674Z,97.8
2018-02-25T07:22:03.145Z,97.7
2018-02-25T07:27:03.306Z,97.6
2018-02-25T07:32:24.119Z,97.2
2018-02-25T07:37:03.676Z,97.2
2018-02-25T07:42:03.842Z,97.2
2018-02-25T07:47:22.612Z,97.8
2018-02-25T07:52:03.346Z,97.9
2018-02-25T07:57:03.555Z,97.9
2018-02-25T08:02:04.265Z,97.5
2018-02-25T08:07:04.019Z,97.9
2018-02-25T08:12:03.258Z,97.6
2018-02-25T08:17:16.908Z,97.7
2018-02-25T08:22:03.861Z,97.7
2018-02-25T08:27:04.036Z,98.1
2018-02-25T08:32:24.385Z,98.3
2018-02-25T08:37:03.852Z,98.2
2018-02-25T08:42:03.015Z,98.0
2018-02-25T08:47:28.179Z,97.8
2018-02-25T08:52:03.417Z,98.2
2018-02-25T08:57:03.594Z,98.2
2018-02-25T09:02:24.228Z,97.7
2018-02-25T09:07:03.242Z,96.8
2018-02-25T09:12:03.524Z,96.7
2018-02-25T09:17:24.325Z,97.3
2018-02-25T09:22:03.375Z,97.8
2018-02-25T09:27:03.481Z,98.0
2018-02-25T09:32:25.132Z,98.2
2018-02-25T09:37:03.859Z,98.1
2018-02-25T09:42:02.989Z,98.9
2018-02-25T09:47:29.825Z,98.8
2018-02-25T09:52:03.287Z,98.2
2018-02-25T09:57:03.551Z,98.2
2018-02-25T10:02:28.502Z,98.1
2018-02-25T10:07:03.137Z,98.9
2018-02-25T10:12:03.467Z,98.8
2018-02-25T10:17:26.801Z,98.2
2018-02-25T10:22:03.960Z,98.2
2018-02-25T10:27:03.146Z,98.2
2018-02-25T10:32:23.519Z,98.9
2018-02-25T10:37:03.641Z,98.9
2018-02-25T10:42:03.808Z,98.6
2018-02-25T10:47:21.297Z,98.6
2018-02-25T10:52:03.227Z,98.6
2018-02-25T10:57:03.715Z,98.8
2018-02-25T11:02:05.183Z,99.0
2018-02-25T11:07:03.743Z,85.4
2018-02-25T11:12:03.247Z,98.2
2018-02-25T11:17:30.963Z,97.8
2018-02-25T11:22:03.792Z,98.3
2018-02-25T11:27:03.871Z,98.2
2018-02-25T11:32:04.748Z,98.2
2018-02-25T11:37:03.859Z,98.2
2018-02-25T11:42:03.845Z,97.3
2018-02-25T11:47:03.628Z,98.0
2018-02-25T11:52:03.336Z,97.8
2018-02-25T11:57:03.424Z,94.6
2018-02-25T12:02:12.010Z,97.8
2018-02-25T12:07:03.983Z,98.0
2018-02-25T12:12:03.393Z,98.6
2018-02-25T12:17:15.979Z,98.1
2018-02-25T12:22:03.478Z,98.6
2018-02-25T12:27:03.890Z,98.8
2018-02-25T12:32:16.013Z,99.5
2018-02-25T12:37:03.896Z,99.2
2018-02-25T12:42:03.497Z,99.8
2018-02-25T12:47:04.601Z,99.9
2018-02-25T12:52:03.023Z,99.9
2018-02-25T12:57:03.741Z,99.9
2018-02-25T13:02:04.770Z,99.9
2018-02-25T13:07:03.744Z,99.9
2018-02-25T13:12:03.352Z,99.9
2018-02-25T13:17:24.031Z,99.4
2018-02-25T13:22:03.841Z,99.9
2018-02-25T13:27:03.955Z,99.9
2018-02-25T13:32:22.873Z,99.9
2018-02-25T13:37:03.538Z,99.9
2018-02-25T13:42:03.674Z,99.9
2018-02-25T13:47:22.898Z,99.9
2018-02-25T13:52:03.624Z,99.9
2018-02-25T13:57:03.787Z,99.9
2018-02-25T14:02:24.622Z,99.9
2018-02-25T14:07:03.576Z,99.9
2018-02-25T14:12:03.860Z,99.9
2018-02-25T14:17:21.862Z,99.9
2018-02-25T14:22:03.190Z,99.9
2018-02-25T14:27:03.470Z,99.9
2018-02-25T14:32:23.941Z,99.9
2018-02-25T14:37:03.734Z,99.9
2018-02-25T14:42:03.897Z,99.9
2018-02-25T14:47:22.813Z,97.4
2018-02-25T14:52:03.109Z,93.1
2018-02-25T14:57:03.309Z,91.2
2018-02-25T15:02:21.380Z,89.8
2018-02-25T15:07:03.713Z,86.3
2018-02-25T15:12:03.834Z,84.8
2018-02-25T15:17:23.651Z,84.8
2018-02-25T15:22:03.258Z,81.2
2018-02-25T15:27:03.428Z,81.1
2018-02-25T15:32:25.653Z,80.3
2018-02-25T15:37:03.782Z,78.5
2018-02-25T15:42:03.908Z,77.3
2018-02-25T15:47:23.421Z,76.3
2018-02-25T15:52:03.231Z,76.2
2018-02-25T15:57:03.447Z,76.0
2018-02-25T16:02:22.855Z,75.5
2018-02-25T16:07:03.813Z,75.6
2018-02-25T16:12:03.188Z,76.6
2018-02-25T16:17:23.448Z,76.5
2018-02-25T16:22:03.604Z,75.7
2018-02-25T16:27:03.760Z,77.2
2018-02-25T16:32:21.225Z,77.1
2018-02-25T16:37:03.985Z,78.2
2018-02-25T16:42:03.080Z,78.2
2018-02-25T16:47:23.190Z,80.3
2018-02-25T16:52:03.463Z,81.2
2018-02-25T16:57:03.621Z,81.2
2018-02-25T17:02:22.664Z,84.8
2018-02-25T17:07:03.114Z,86.7
2018-02-25T17:12:03.523Z,86.5
2018-02-25T17:17:21.697Z,90.1
2018-02-25T17:22:04.013Z,90.0
2018-02-25T17:27:03.106Z,91.4
2018-02-25T17:32:23.325Z,93.2
2018-02-25T17:37:03.587Z,93.1
2018-02-25T17:42:03.598Z,96.6
2018-02-25T17:47:07.128Z,96.5
2018-02-25T17:52:03.076Z,98.1
2018-02-25T17:57:03.264Z,98.1
2018-02-25T18:02:03.523Z,97.2
2018-02-25T18:07:03.627Z,97.4
2018-02-25T18:12:03.889Z,97.3
2018-02-25T18:17:04.054Z,97.1
2018-02-25T18:22:03.274Z,97.0
2018-02-25T18:27:03.469Z,96.9
2018-02-25T18:32:03.465Z,96.7
2018-02-25T18:37:03.574Z,96.6
2018-02-25T18:42:03.640Z,96.6
2018-02-25T18:47:03.772Z,96.8
2018-02-25T18:52:03.922Z,96.8
2018-02-25T18:57:02.977Z,97.3
2018-02-25T19:02:03.302Z,97.7
2018-02-25T19:07:03.401Z,97.3
2018-02-25T19:12:03.711Z,97.7
2018-02-25T19:17:03.834Z,97.8
2018-02-25T19:22:03.934Z,97.8
2018-02-25T19:27:04.046Z,97.7
2018-02-25T19:32:03.290Z,97.8
2018-02-25T19:37:03.442Z,97.8
2018-02-25T19:42:03.456Z,97.9
2018-02-25T19:47:03.582Z,98.0
2018-02-25T19:52:03.631Z,98.5
2018-02-25T19:57:03.688Z,98.5
2018-02-25T20:02:03.814Z,98.3
2018-02-25T20:07:03.965Z,98.9
2018-02-25T20:12:03.299Z,98.8
2018-02-25T20:17:03.617Z,98.7
2018-02-25T20:22:03.586Z,98.7
2018-02-25T20:27:03.611Z,98.6
2018-02-25T20:32:03.728Z,98.4
2018-02-25T20:37:03.900Z,98.4
2018-02-25T20:42:03.916Z,98.2
2018-02-25T20:47:03.191Z,98.2
2018-02-25T20:52:03.284Z,98.2
2018-02-25T20:57:03.489Z,98.2
2018-02-25T21:02:03.529Z,98.2
2018-02-25T21:07:03.711Z,98.1
2018-02-25T21:12:03.989Z,97.8
2018-02-25T21:17:04.001Z,97.6
2018-02-25T21:22:03.213Z,97.5
2018-02-25T21:27:03.406Z,97.6
2018-02-25T21:32:03.455Z,97.6
2018-02-25T21:37:03.564Z,97.3
2018-02-25T21:42:03.589Z,97.2
2018-02-25T21:47:03.713Z,97.3
2018-02-25T21:52:03.804Z,97.3
2018-02-25T21:57:03.921Z,97.5
2018-02-25T22:02:03.153Z,97.6
2018-02-25T22:07:03.448Z,97.6
2018-02-25T22:12:03.538Z,97.3
2018-02-25T22:17:03.720Z,97.3
2018-02-25T22:22:03.796Z,97.2
2018-02-25T22:27:03.891Z,97.1
2018-02-25T22:32:04.059Z,97.2
2018-02-25T22:37:03.225Z,97.0
2018-02-25T22:42:03.309Z,97.1
2018-02-25T22:47:03.512Z,96.9
2018-02-25T22:52:03.515Z,96.8
2018-02-25T22:57:03.580Z,96.7
2018-02-25T23:02:03.846Z,97.0
2018-02-25T23:07:03.332Z,97.0
2018-02-25T23:12:03.563Z,97.0
2018-02-25T23:22:03.413Z,96.7
2018-02-25T23:27:03.272Z,97.0
2018-02-25T23:32:03.395Z,97.1
2018-02-25T23:37:03.445Z,97.1
2018-02-25T23:42:03.469Z,97.2
2018-02-25T23:47:03.575Z,97.1
2018-02-25T23:52:03.279Z,97.0
2018-02-25T23:57:03.195Z,97.0
